Time;durP1;ratioP1;P1;durP2;ratioP2;P2;SDS_P1;SDS_P2;PMS_P1;PMS_P2;Temp;Humidity;BMP_temperature;BMP_pressure;BME280_temperature;BME280_humidity;BME280_pressure;Samples;Min_cycle;Max_cycle;Signal;HPM_P1;HPM_P2
2022/05/22 00:00:34;;;;;;;11.43;6.60;;;10.10;99.90;;;;;;5087752;28;20155;-48
2022/05/22 00:03:00;;;;;;;15.45;6.43;;;10.10;99.90;;;;;;5088256;28;20846;-57
2022/05/22 00:05:27;;;;;;;9.38;6.07;;;10.10;99.90;;;;;;5086753;28;20052;-57
2022/05/22 00:07:53;;;;;;;14.93;6.55;;;10.10;99.90;;;;;;5088010;28;20081;-56
2022/05/22 00:10:19;;;;;;;13.43;6.07;;;10.10;99.90;;;;;;5087544;28;20058;-57
2022/05/22 00:12:45;;;;;;;13.40;6.75;;;10.10;99.90;;;;;;5088184;28;20480;-57
2022/05/22 00:15:15;;;;;;;12.77;7.45;;;10.10;99.90;;;;;;5088047;28;20501;-49
2022/05/22 00:17:42;;;;;;;9.63;7.45;;;10.00;99.90;;;;;;5069648;28;20237;-50
2022/05/22 00:20:09;;;;;;;16.00;7.78;;;10.00;99.90;;;;;;5069537;28;20075;-46
2022/05/22 00:22:36;;;;;;;15.00;7.70;;;9.90;99.90;;;;;;5069618;28;20059;-46
2022/05/22 00:25:05;;;;;;;11.27;7.60;;;9.90;99.90;;;;;;5088376;28;20507;-47
2022/05/22 00:27:32;;;;;;;13.98;6.53;;;9.90;99.90;;;;;;5088052;28;20048;-47
2022/05/22 00:29:58;;;;;;;16.08;8.18;;;9.90;99.90;;;;;;5087967;28;20728;-50
2022/05/22 00:32:24;;;;;;;17.42;7.93;;;9.90;99.90;;;;;;5052920;28;20492;-46
2022/05/22 00:34:50;;;;;;;13.27;7.85;;;9.80;99.90;;;;;;5069519;28;20041;-48
2022/05/22 00:37:16;;;;;;;11.65;7.40;;;9.80;99.90;;;;;;5088007;28;20060;-46
2022/05/22 00:39:44;;;;;;;11.48;7.32;;;9.80;99.90;;;;;;5069571;28;20839;-53
2022/05/22 00:42:18;;;;;;;14.93;8.23;;;9.80;99.90;;;;;;5086587;28;20086;-51
2022/05/22 00:44:46;;;;;;;11.88;6.63;;;9.80;99.90;;;;;;5068953;28;20048;-47
2022/05/22 00:47:12;;;;;;;13.85;6.95;;;9.80;99.90;;;;;;5069324;28;20385;-46
2022/05/22 00:49:43;;;;;;;10.38;6.65;;;9.80;99.90;;;;;;5067983;28;20054;-47
2022/05/22 00:52:23;;;;;;;10.85;6.75;;;9.80;99.90;;;;;;5069164;28;20056;-47
2022/05/22 00:54:57;;;;;;;10.27;6.90;;;9.80;99.90;;;;;;5087210;28;20048;-49
2022/05/22 00:57:33;;;;;;;11.98;7.05;;;9.70;99.90;;;;;;5068738;28;20059;-48
2022/05/22 01:00:05;;;;;;;11.13;6.95;;;9.70;99.90;;;;;;5035431;28;20554;-50
2022/05/22 01:03:26;;;;;;;11.15;7.45;;;9.70;99.90;;;;;;5051911;28;20044;-50
2022/05/22 01:05:17;;;;;;;15.98;7.07;;;9.70;99.90;;;;;;5086990;28;20124;-49
2022/05/22 01:07:44;;;;;;;10.35;7.13;;;9.70;99.90;;;;;;5068700;28;20058;-48
2022/05/22 01:10:11;;;;;;;13.43;7.63;;;9.70;99.90;;;;;;5068664;28;20048;-48
2022/05/22 01:12:40;;;;;;;15.10;7.47;;;9.60;99.90;;;;;;5068620;28;20151;-47
2022/05/22 01:15:07;;;;;;;13.90;7.38;;;9.50;99.90;;;;;;5068430;28;20056;-46
2022/05/22 01:17:46;;;;;;;11.27;7.15;;;9.50;99.90;;;;;;5052262;28;20055;-47
2022/05/22 01:20:14;;;;;;;11.35;7.03;;;9.40;99.90;;;;;;5068458;28;20063;-48
2022/05/22 01:22:40;;;;;;;11.90;6.30;;;9.40;99.90;;;;;;5069042;28;20436;-58
2022/05/22 01:25:08;;;;;;;9.30;6.22;;;9.40;99.90;;;;;;5051773;28;20114;-50
2022/05/22 01:27:36;;;;;;;8.73;5.70;;;9.30;99.90;;;;;;5051717;28;20510;-48
2022/05/22 01:30:25;;;;;;;8.32;6.43;;;9.20;99.90;;;;;;5067612;28;20058;-48
2022/05/22 01:33:04;;;;;;;12.02;5.97;;;9.20;99.90;;;;;;5020441;28;20054;-50
2022/05/22 01:35:30;;;;;;;7.13;5.38;;;9.10;99.90;;;;;;5035617;28;20052;-47
2022/05/22 01:38:02;;;;;;;9.50;5.50;;;9.10;99.90;;;;;;5068967;28;20048;-50
2022/05/22 01:40:29;;;;;;;7.97;5.82;;;9.10;99.90;;;;;;5051860;28;20055;-52
2022/05/22 01:42:55;;;;;;;7.65;5.80;;;9.10;99.90;;;;;;5068551;28;20055;-49
2022/05/22 01:45:25;;;;;;;10.60;6.22;;;9.10;99.90;;;;;;5051316;28;20044;-50
2022/05/22 01:47:53;;;;;;;8.40;6.25;;;9.10;99.90;;;;;;5051117;28;20060;-47
2022/05/22 01:50:25;;;;;;;9.25;5.72;;;9.10;99.90;;;;;;5051118;28;20063;-48
2022/05/22 01:52:52;;;;;;;10.65;5.78;;;9.10;99.90;;;;;;5067796;28;20051;-48
2022/05/22 01:55:18;;;;;;;9.63;5.63;;;9.10;99.90;;;;;;5067573;28;20051;-48
2022/05/22 01:57:47;;;;;;;9.95;6.07;;;9.10;99.90;;;;;;5068087;28;20121;-47
2022/05/22 02:00:18;;;;;;;9.30;6.47;;;9.00;99.90;;;;;;5051396;28;20068;-47
2022/05/22 02:02:44;;;;;;;11.18;6.03;;;9.00;99.90;;;;;;5067382;28;20047;-48
2022/05/22 02:05:18;;;;;;;13.63;6.85;;;9.00;99.90;;;;;;5067585;28;20120;-57
2022/05/22 02:10:31;;;;;;;14.98;7.30;;;9.00;99.90;;;;;;5053216;28;20117;-57
2022/05/22 02:12:58;;;;;;;11.88;6.82;;;8.90;99.90;;;;;;5051056;28;20433;-58
2022/05/22 02:15:24;;;;;;;10.20;6.95;;;8.90;99.90;;;;;;5051276;28;20043;-57
2022/05/22 02:17:51;;;;;;;10.85;6.90;;;8.90;99.90;;;;;;5086028;28;20105;-54
2022/05/22 02:20:18;;;;;;;8.70;6.88;;;8.90;99.90;;;;;;5064152;28;20529;-47
2022/05/22 02:22:49;;;;;;;13.10;7.72;;;8.90;99.90;;;;;;5047570;28;20135;-51
2022/05/22 02:25:19;;;;;;;8.82;5.50;;;8.90;99.90;;;;;;5073273;28;20091;-47
2022/05/22 02:27:46;;;;;;;7.43;5.60;;;8.80;99.90;;;;;;5063753;28;20067;-57
2022/05/22 02:30:15;;;;;;;8.23;5.88;;;8.80;99.90;;;;;;5047218;28;20127;-49
2022/05/22 02:32:41;;;;;;;9.38;6.60;;;8.80;99.90;;;;;;5065316;28;20751;-46
2022/05/22 02:35:11;;;;;;;11.82;6.53;;;8.80;99.90;;;;;;5030950;28;20493;-49
2022/05/22 02:37:50;;;;;;;9.38;6.32;;;8.80;99.90;;;;;;5046968;28;20056;-47
2022/05/22 02:40:46;;;;;;;11.43;5.68;;;8.70;99.90;;;;;;5050576;28;20071;-47
2022/05/22 02:43:13;;;;;;;14.35;7.90;;;8.70;99.90;;;;;;5063104;28;20055;-49
2022/05/22 02:45:40;;;;;;;10.75;7.03;;;8.70;99.90;;;;;;5063848;28;20051;-48
2022/05/22 02:48:10;;;;;;;10.00;7.35;;;8.70;99.90;;;;;;5047004;28;20095;-50
2022/05/22 02:50:38;;;;;;;11.85;6.35;;;8.70;99.90;;;;;;5056446;28;20048;-50
2022/05/22 02:53:09;;;;;;;10.63;5.78;;;8.70;99.90;;;;;;5064704;28;20143;-56
2022/05/22 02:56:17;;;;;;;13.05;7.10;;;8.70;99.90;;;;;;4975154;28;20085;-55
2022/05/22 02:59:04;;;;;;;10.68;7.57;;;8.80;99.90;;;;;;4999582;28;20050;-57
2022/05/22 03:01:42;;;;;;;13.75;7.53;;;8.70;99.90;;;;;;5026013;28;20056;-56
2022/05/22 03:04:08;;;;;;;9.88;8.18;;;8.70;99.90;;;;;;5010465;28;20053;-45
2022/05/22 03:06:40;;;;;;;10.10;7.25;;;8.60;99.90;;;;;;5043120;28;20049;-50
2022/05/22 03:09:11;;;;;;;11.85;7.80;;;8.60;99.90;;;;;;5061725;28;20060;-48
2022/05/22 03:11:39;;;;;;;11.95;7.30;;;8.60;99.90;;;;;;5046391;28;20052;-48
2022/05/22 03:14:07;;;;;;;9.00;6.93;;;8.60;99.90;;;;;;5045503;28;20044;-49
2022/05/22 03:16:34;;;;;;;14.07;7.57;;;8.60;99.90;;;;;;5062855;28;20067;-50
2022/05/22 03:19:22;;;;;;;11.68;6.85;;;8.60;99.90;;;;;;5033236;28;20529;-48
2022/05/22 03:21:50;;;;;;;10.32;7.22;;;8.60;99.90;;;;;;5083491;28;20105;-50
2022/05/22 03:24:16;;;;;;;10.65;7.18;;;8.60;99.90;;;;;;5066211;28;20066;-48
2022/05/22 03:26:49;;;;;;;11.32;7.35;;;8.60;99.90;;;;;;5067288;28;20055;-48
2022/05/22 03:29:16;;;;;;;10.10;7.28;;;8.60;99.90;;;;;;5066516;28;20055;-47
2022/05/22 03:31:43;;;;;;;11.18;7.43;;;8.50;99.90;;;;;;5066195;28;20599;-47
2022/05/22 03:34:10;;;;;;;14.68;8.30;;;8.50;99.90;;;;;;5066047;28;20131;-51
2022/05/22 03:36:41;;;;;;;12.93;8.20;;;8.50;99.90;;;;;;5066533;28;20052;-49
2022/05/22 03:39:09;;;;;;;12.20;8.90;;;8.50;99.90;;;;;;5049306;28;20058;-50
2022/05/22 03:41:36;;;;;;;15.35;8.65;;;8.50;99.90;;;;;;5066003;28;20554;-47
2022/05/22 03:44:02;;;;;;;10.75;8.15;;;8.40;99.90;;;;;;5065955;28;20051;-45
2022/05/22 03:46:36;;;;;;;10.18;8.00;;;8.50;99.90;;;;;;5032774;28;20044;-47
2022/05/22 03:49:02;;;;;;;13.13;7.70;;;8.50;99.90;;;;;;5066717;28;20052;-45
2022/05/22 03:51:35;;;;;;;11.27;7.95;;;8.50;99.90;;;;;;5066544;28;20508;-54
2022/05/22 03:54:01;;;;;;;12.60;8.00;;;8.50;99.90;;;;;;5067266;28;20883;-54
2022/05/22 03:56:35;;;;;;;10.18;7.88;;;8.50;99.90;;;;;;5033550;28;20135;-54
2022/05/22 03:59:02;;;;;;;14.40;8.93;;;8.50;99.90;;;;;;5066470;28;20052;-56
2022/05/22 04:01:29;;;;;;;11.90;7.97;;;8.50;99.90;;;;;;5049390;28;20287;-57
2022/05/22 04:03:59;;;;;;;11.23;8.15;;;8.50;99.90;;;;;;5066369;28;20105;-54
2022/05/22 04:06:26;;;;;;;10.23;7.68;;;8.50;99.90;;;;;;5049516;28;20656;-56
2022/05/22 04:08:52;;;;;;;11.95;8.38;;;8.50;99.90;;;;;;5066412;28;20067;-56
2022/05/22 04:11:28;;;;;;;10.45;8.30;;;8.50;99.90;;;;;;5084393;28;20117;-55
2022/05/22 04:13:57;;;;;;;12.88;8.60;;;8.50;99.90;;;;;;5066092;28;20048;-47
2022/05/22 04:16:23;;;;;;;11.90;7.97;;;8.60;99.90;;;;;;5065996;28;20083;-46
2022/05/22 04:18:49;;;;;;;8.88;7.80;;;8.60;99.90;;;;;;5065767;28;20052;-50
2022/05/22 04:21:16;;;;;;;11.00;8.10;;;8.60;99.90;;;;;;5084040;28;20091;-48
2022/05/22 04:26:37;;;;;;;11.43;8.25;;;8.80;99.90;;;;;;5070158;28;20056;-48
2022/05/22 04:29:06;;;;;;;10.02;7.40;;;8.80;99.90;;;;;;5069349;28;20135;-48
2022/05/22 04:31:33;;;;;;;12.63;8.15;;;8.80;99.90;;;;;;5036563;28;20116;-49
2022/05/22 04:34:11;;;;;;;10.90;8.07;;;8.90;99.90;;;;;;5037787;28;20063;-51
2022/05/22 04:36:39;;;;;;;10.85;8.90;;;8.90;99.90;;;;;;5052863;28;20051;-48
2022/05/22 04:39:05;;;;;;;11.95;7.53;;;9.00;99.90;;;;;;5069451;28;20063;-50
2022/05/22 04:41:32;;;;;;;12.93;7.10;;;9.00;99.90;;;;;;5069284;28;20074;-51
2022/05/22 04:43:58;;;;;;;11.70;7.05;;;9.00;99.90;;;;;;5069253;28;20617;-49
2022/05/22 04:46:25;;;;;;;10.77;6.57;;;9.10;99.90;;;;;;5068970;28;20497;-47
2022/05/22 04:48:52;;;;;;;10.70;6.15;;;9.00;99.90;;;;;;5086103;28;20048;-48
2022/05/22 04:51:18;;;;;;;11.15;6.35;;;9.10;99.90;;;;;;5069000;28;20056;-47
2022/05/22 04:53:50;;;;;;;13.32;6.53;;;9.20;99.90;;;;;;5087406;28;20044;-50
2022/05/22 04:56:34;;;;;;;9.27;6.57;;;9.20;99.90;;;;;;5071883;28;20381;-47
2022/05/22 04:59:21;;;;;;;10.18;6.18;;;9.30;99.90;;;;;;5035579;28;20080;-46
2022/05/22 05:01:48;;;;;;;11.73;7.00;;;9.30;99.90;;;;;;5036010;28;20048;-47
2022/05/22 05:04:22;;;;;;;9.85;6.57;;;9.50;99.90;;;;;;5069387;28;20040;-52
2022/05/22 05:06:54;;;;;;;11.75;6.47;;;9.80;99.90;;;;;;5069648;28;20056;-50
2022/05/22 05:09:39;;;;;;;10.32;6.80;;;10.20;99.90;;;;;;5087706;28;20100;-46
2022/05/22 05:12:12;;;;;;;10.75;5.25;;;10.60;99.90;;;;;;5069012;28;20040;-46
2022/05/22 05:14:39;;;;;;;8.15;5.55;;;10.90;99.90;;;;;;5069168;28;20051;-51
2022/05/22 05:17:11;;;;;;;9.23;4.50;;;11.30;99.90;;;;;;5068942;28;20075;-51
2022/05/22 05:19:38;;;;;;;8.27;5.43;;;11.60;99.90;;;;;;5068702;28;20056;-48
2022/05/22 05:22:05;;;;;;;8.95;5.07;;;11.60;99.90;;;;;;5068559;28;20067;-49
2022/05/22 05:24:32;;;;;;;12.38;6.60;;;11.80;99.90;;;;;;5067816;28;20134;-54
2022/05/22 05:26:58;;;;;;;14.02;5.97;;;12.30;99.90;;;;;;5051353;28;20129;-53
2022/05/22 05:29:25;;;;;;;9.40;5.50;;;12.50;99.90;;;;;;5051078;28;20104;-56
2022/05/22 05:31:52;;;;;;;11.20;5.88;;;12.90;99.90;;;;;;5068112;28;20048;-51
2022/05/22 05:34:20;;;;;;;12.38;5.88;;;13.00;99.90;;;;;;5068053;28;20062;-55
2022/05/22 05:37:10;;;;;;;14.05;6.78;;;13.20;99.90;;;;;;5071160;28;20058;-51
2022/05/22 05:39:42;;;;;;;11.35;6.25;;;13.50;99.90;;;;;;5068461;28;20059;-56
2022/05/22 05:42:31;;;;;;;9.90;5.25;;;13.60;99.90;;;;;;5068254;28;20104;-54
2022/05/22 05:44:57;;;;;;;;;;;13.70;99.90;;;;;;5069155;28;20156;-53
2022/05/22 05:47:26;;;;;;;9.40;5.32;;;13.80;99.90;;;;;;5068545;28;19920;-55
2022/05/22 05:50:22;;;;;;;11.50;5.55;;;14.10;99.90;;;;;;5051756;28;20060;-57
2022/05/22 05:53:06;;;;;;;11.48;5.88;;;14.10;99.90;;;;;;5086491;28;20040;-56
2022/05/22 05:55:47;;;;;;;11.90;5.25;;;14.30;99.90;;;;;;5051153;28;20059;-56
2022/05/22 05:58:32;;;;;;;12.88;6.32;;;14.50;99.90;;;;;;5086550;28;20569;-56
2022/05/22 06:01:14;;;;;;;9.60;4.90;;;14.60;99.90;;;;;;5068175;28;20100;-55
2022/05/22 06:03:41;;;;;;;12.45;4.93;;;14.80;99.90;;;;;;5068500;28;20409;-53
2022/05/22 06:06:08;;;;;;;12.73;4.78;;;15.00;99.90;;;;;;5067794;28;20048;-57
2022/05/22 06:08:38;;;;;;;10.63;5.13;;;15.10;99.90;;;;;;5067579;28;20044;-57
2022/05/22 06:11:32;;;;;;;11.30;4.80;;;15.40;99.90;;;;;;5058886;28;20060;-57
2022/05/22 06:14:05;;;;;;;12.77;4.55;;;15.30;99.90;;;;;;5051988;28;20056;-56
2022/05/22 06:16:31;;;;;;;12.52;5.15;;;15.40;99.90;;;;;;5034860;28;20128;-57
2022/05/22 06:19:05;;;;;;;10.10;4.22;;;15.50;99.90;;;;;;5068188;28;20055;-56
2022/05/22 06:21:31;;;;;;;8.63;4.20;;;15.50;99.90;;;;;;5050973;28;20056;-57
2022/05/22 06:23:58;;;;;;;10.25;4.97;;;15.90;99.90;;;;;;5067455;28;20528;-56
2022/05/22 06:26:42;;;;;;;13.35;4.68;;;16.00;99.90;;;;;;5067461;28;20588;-56
2022/05/22 06:29:29;;;;;;;15.10;4.30;;;16.20;99.90;;;;;;5066848;28;20547;-57
2022/05/22 06:32:15;;;;;;;12.13;4.47;;;16.20;99.90;;;;;;5067442;28;20052;-57
2022/05/22 06:35:14;;;;;;;10.65;3.45;;;16.20;99.90;;;;;;5067550;28;20125;-56
2022/05/22 06:37:54;;;;;;;15.43;4.97;;;16.20;99.90;;;;;;5067575;28;20052;-57
2022/05/22 06:40:39;;;;;;;11.00;3.97;;;16.40;99.90;;;;;;5050419;28;20055;-57
2022/05/22 06:43:31;;;;;;;12.95;4.88;;;16.40;99.90;;;;;;5061378;28;20130;-57
2022/05/22 06:46:16;;;;;;;13.63;3.95;;;16.50;99.90;;;;;;5066854;28;20051;-59
2022/05/22 06:49:02;;;;;;;11.80;3.97;;;16.50;99.90;;;;;;5067323;28;20062;-59
2022/05/22 06:51:58;;;;;;;13.13;4.32;;;16.70;99.90;;;;;;5073811;28;20109;-58
2022/05/22 06:54:49;;;;;;;11.57;4.43;;;16.90;99.90;;;;;;5054521;28;20051;-59
2022/05/22 06:57:33;;;;;;;11.27;4.32;;;17.10;99.90;;;;;;5067333;28;20168;-57
2022/05/22 07:00:31;;;;;;;10.25;4.10;;;17.10;99.90;;;;;;5028822;28;20771;-58
2022/05/22 07:03:16;;;;;;;11.27;3.67;;;17.20;99.90;;;;;;5065265;28;20389;-58
2022/05/22 07:06:09;;;;;;;11.77;4.18;;;17.40;99.90;;;;;;5042696;28;20063;-59
2022/05/22 07:08:51;;;;;;;11.05;3.83;;;17.10;99.90;;;;;;5049137;28;20040;-58
2022/05/22 07:11:53;;;;;;;9.50;4.00;;;17.50;99.90;;;;;;5009055;28;20041;-60
2022/05/22 07:14:42;;;;;;;8.80;3.80;;;17.70;99.90;;;;;;5046018;28;20045;-59
2022/05/22 07:17:29;;;;;;;11.52;3.85;;;17.90;99.90;;;;;;5045988;28;20047;-59
2022/05/22 07:20:13;;;;;;;10.63;4.32;;;18.20;99.90;;;;;;5064668;28;20059;-59
2022/05/22 07:22:39;;;;;;;9.05;3.85;;;18.40;99.90;;;;;;5064877;28;20049;-57
2022/05/22 07:25:28;;;;;;;7.57;3.45;;;18.40;99.90;;;;;;5017750;28;20065;-48
2022/05/22 07:28:02;;;;;;;11.73;4.05;;;18.50;99.90;;;;;;5065134;28;20059;-51
2022/05/22 07:30:49;;;;;;;10.15;3.53;;;18.60;99.90;;;;;;5032723;28;20052;-49
2022/05/22 07:33:34;;;;;;;15.05;4.35;;;18.60;99.90;;;;;;5063052;28;20060;-47
2022/05/22 07:36:19;;;;;;;11.27;4.25;;;18.50;99.90;;;;;;5062784;28;20125;-50
2022/05/22 07:39:05;;;;;;;10.48;4.28;;;18.90;99.90;;;;;;5064393;28;20087;-46
2022/05/22 07:41:50;;;;;;;11.02;3.75;;;18.90;99.90;;;;;;5062657;28;20050;-47
2022/05/22 07:44:30;;;;;;;8.68;2.97;;;19.00;99.90;;;;;;5045336;28;20045;-50
2022/05/22 07:47:15;;;;;;;10.20;2.83;;;19.00;99.90;;;;;;5046419;28;20106;-51
2022/05/22 07:52:45;;;;;;;9.60;3.37;;;19.40;99.90;;;;;;5046653;28;20136;-50
2022/05/22 07:55:39;;;;;;;9.32;2.90;;;19.50;99.90;;;;;;5033162;28;20432;-49
2022/05/22 07:58:23;;;;;;;12.02;2.88;;;19.70;99.90;;;;;;5048700;28;20546;-52
2022/05/22 08:01:12;;;;;;;9.35;3.05;;;19.50;99.90;;;;;;5086713;28;20047;-52
2022/05/22 08:03:58;;;;;;;8.60;3.00;;;20.10;99.90;;;;;;5056446;28;20122;-50
2022/05/22 08:06:57;;;;;;;10.63;2.78;;;19.80;99.90;;;;;;5035913;28;20051;-46
2022/05/22 08:09:36;;;;;;;10.45;2.80;;;19.90;99.90;;;;;;5069891;28;20063;-46
2022/05/22 08:12:03;;;;;;;8.20;2.83;;;19.90;99.90;;;;;;5070356;28;20044;-59
2022/05/22 08:14:30;;;;;;;8.30;3.08;;;20.00;99.90;;;;;;5087809;28;20075;-58
2022/05/22 08:16:56;;;;;;;10.32;3.35;;;20.20;99.90;;;;;;5070080;28;20787;-59
2022/05/22 08:19:22;;;;;;;8.73;2.83;;;20.10;99.90;;;;;;5069562;28;20048;-58
2022/05/22 08:22:10;;;;;;;8.05;2.97;;;20.30;99.90;;;;;;5053607;28;20051;-50
2022/05/22 08:24:56;;;;;;;9.85;3.58;;;20.40;99.90;;;;;;5087956;28;20052;-50
2022/05/22 08:27:25;;;;;;;7.85;2.78;;;20.50;99.90;;;;;;5053270;28;20131;-52
2022/05/22 08:29:51;;;;;;;9.57;3.05;;;20.60;99.90;;;;;;5069907;28;20052;-47
2022/05/22 08:32:17;;;;;;;6.60;2.53;;;20.60;99.90;;;;;;5069937;28;20055;-48
2022/05/22 08:34:46;;;;;;;8.60;2.47;;;20.90;99.90;;;;;;5069180;28;20761;-58
2022/05/22 08:37:12;;;;;;;9.10;2.38;;;20.70;99.90;;;;;;5052764;28;20051;-58
2022/05/22 08:39:38;;;;;;;7.07;2.35;;;21.10;99.90;;;;;;5087662;28;20370;-53
2022/05/22 08:42:10;;;;;;;8.38;2.28;;;21.00;99.90;;;;;;5087596;28;20048;-50
2022/05/22 08:44:38;;;;;;;5.68;1.75;;;21.10;99.90;;;;;;5086940;28;20052;-58
2022/05/22 08:47:33;;;;;;;8.57;2.05;;;21.30;99.90;;;;;;5069079;28;20512;-58
2022/05/22 08:50:07;;;;;;;10.55;2.60;;;20.70;99.90;;;;;;5085822;28;20059;-50
2022/05/22 08:52:51;;;;;;;9.05;2.25;;;20.40;99.90;;;;;;5087429;28;20077;-59
2022/05/22 09:01:38;;;;;;;8.77;2.30;;;21.70;99.90;;;;;;5087276;28;20524;-52
2022/05/22 09:04:33;;;;;;;8.20;2.30;;;21.90;99.90;;;;;;5087142;28;20503;-58
2022/05/22 09:07:28;;;;;;;6.32;1.92;;;22.40;98.40;;;;;;5086759;28;20127;-54
2022/05/22 09:10:04;;;;;;;7.85;2.08;;;22.80;97.90;;;;;;5068347;28;20563;-59
2022/05/22 09:12:56;;;;;;;8.73;2.13;;;23.00;99.90;;;;;;5085984;28;20050;-54
2022/05/22 09:15:45;;;;;;;7.65;1.77;;;23.10;95.00;;;;;;5068337;28;20059;-59
2022/05/22 09:18:21;;;;;;;6.95;1.92;;;23.20;99.90;;;;;;5069088;28;20047;-59
2022/05/22 09:20:57;;;;;;;7.90;2.20;;;23.40;97.30;;;;;;5051634;28;20109;-52
2022/05/22 09:23:29;;;;;;;5.35;1.60;;;23.20;96.40;;;;;;5052260;28;20125;-54
2022/05/22 09:25:58;;;;;;;9.32;2.53;;;22.50;88.90;;;;;;5068106;28;20102;-50
2022/05/22 09:28:58;;;;;;;7.07;2.10;;;22.50;99.70;;;;;;5086469;28;20044;-58
2022/05/22 09:31:47;;;;;;;5.43;1.60;;;22.80;95.80;;;;;;5086133;28;20052;-59
2022/05/22 09:34:23;;;;;;;6.80;1.75;;;23.00;94.30;;;;;;5086466;28;20124;-59
2022/05/22 09:36:58;;;;;;;6.78;1.88;;;23.00;97.00;;;;;;5084044;28;20059;-59
2022/05/22 09:39:55;;;;;;;7.97;2.00;;;23.10;96.90;;;;;;5067223;28;20063;-58
2022/05/22 09:42:59;;;;;;;8.65;1.92;;;23.30;89.10;;;;;;5068655;28;20127;-58
2022/05/22 09:45:56;;;;;;;7.55;1.63;;;23.80;82.90;;;;;;5067776;28;20060;-59
2022/05/22 09:48:58;;;;;;;8.23;1.92;;;24.00;91.70;;;;;;5067749;28;20054;-59
2022/05/22 09:51:42;;;;;;;8.38;2.30;;;24.20;95.60;;;;;;5084281;28;20052;-60
2022/05/22 09:54:23;;;;;;;9.15;2.38;;;23.20;84.60;;;;;;5086009;28;20537;-56
2022/05/22 09:56:57;;;;;;;6.63;2.08;;;23.00;90.70;;;;;;5086099;28;20088;-53
2022/05/22 09:59:39;;;;;;;8.85;3.00;;;22.90;99.90;;;;;;5067684;28;20375;-52
2022/05/22 10:02:34;;;;;;;8.07;2.25;;;23.50;96.70;;;;;;5067508;28;20631;-51
2022/05/22 10:05:31;;;;;;;5.93;1.52;;;23.20;90.30;;;;;;5067692;28;20563;-55
2022/05/22 10:08:21;;;;;;;7.28;2.13;;;23.00;94.30;;;;;;5085777;28;20051;-47
2022/05/22 10:11:05;;;;;;;10.43;2.17;;;22.60;94.60;;;;;;5067092;28;20059;-53
2022/05/22 10:13:40;;;;;;;7.97;2.17;;;22.40;99.90;;;;;;5067256;28;20082;-53
2022/05/22 10:16:17;;;;;;;7.15;2.00;;;22.30;98.60;;;;;;5067842;28;20147;-54
2022/05/22 10:19:02;;;;;;;6.47;1.75;;;22.30;99.90;;;;;;5085702;28;20120;-54
2022/05/22 10:21:52;;;;;;;6.82;2.05;;;22.20;99.90;;;;;;5066629;28;20043;-55
2022/05/22 10:24:31;;;;;;;8.13;2.15;;;22.30;99.70;;;;;;5067203;28;20563;-54
2022/05/22 10:27:09;;;;;;;9.38;2.35;;;22.10;98.60;;;;;;5085663;28;20048;-58
2022/05/22 10:30:06;;;;;;;8.35;1.80;;;22.00;96.30;;;;;;5085454;28;20052;-58
2022/05/22 10:33:00;;;;;;;4.13;1.40;;;22.00;97.40;;;;;;5085685;28;20066;-60
2022/05/22 10:35:47;;;;;;;9.48;2.20;;;22.40;99.40;;;;;;5084109;28;20126;-58
2022/05/22 10:38:23;;;;;;;9.73;2.00;;;22.80;94.00;;;;;;5085644;28;20065;-58
2022/05/22 10:43:51;;;;;;;7.65;2.10;;;24.00;96.60;;;;;;5034363;28;20544;-54
2022/05/22 10:46:17;;;;;;;4.90;1.52;;;24.20;69.80;;;;;;5085060;28;20048;-58
2022/05/22 10:48:54;;;;;;;6.70;1.65;;;24.50;70.40;;;;;;5084654;28;20420;-59
2022/05/22 10:51:24;;;;;;;3.90;0.95;;;25.00;59.10;;;;;;5066353;28;20055;-59
2022/05/22 10:53:57;;;;;;;3.92;1.13;;;25.30;55.90;;;;;;5085321;28;20607;-60
2022/05/22 10:56:26;;;;;;;3.85;1.25;;;25.80;56.00;;;;;;5066972;28;20501;-59
2022/05/22 10:58:56;;;;;;;3.42;1.02;;;25.10;46.10;;;;;;5084692;28;20047;-52
2022/05/22 11:01:25;;;;;;;6.85;2.00;;;25.30;49.30;;;;;;5084726;28;20523;-53
2022/05/22 11:04:10;;;;;;;6.70;1.80;;;25.70;60.20;;;;;;5067017;28;20790;-51
2022/05/22 11:06:39;;;;;;;9.05;1.85;;;25.80;60.70;;;;;;5084708;28;20079;-59
2022/05/22 11:09:07;;;;;;;7.82;1.75;;;26.00;55.20;;;;;;5066043;28;20048;-59
2022/05/22 11:11:35;;;;;;;5.03;1.73;;;25.70;53.70;;;;;;5084272;28;20068;-54
2022/05/22 11:14:13;;;;;;;5.95;1.98;;;26.10;54.80;;;;;;5085017;28;20705;-55
2022/05/22 11:16:40;;;;;;;9.07;1.92;;;26.40;53.00;;;;;;5017093;28;20054;-54
2022/05/22 11:19:26;;;;;;;6.85;1.45;;;26.90;52.80;;;;;;5084600;28;20048;-53
2022/05/22 11:21:58;;;;;;;5.07;1.60;;;26.90;50.60;;;;;;5050017;28;20139;-51
2022/05/22 11:24:36;;;;;;;6.65;1.63;;;27.00;50.20;;;;;;5066258;28;20063;-54
2022/05/22 11:27:11;;;;;;;9.00;2.40;;;27.20;51.60;;;;;;5049834;28;20052;-53
2022/05/22 11:30:15;;;;;;;6.22;1.65;;;27.40;50.80;;;;;;5066456;28;20048;-53
2022/05/22 11:33:01;;;;;;;5.50;1.65;;;27.60;49.60;;;;;;5067082;28;20702;-49
2022/05/22 11:35:52;;;;;;;6.72;1.88;;;27.60;50.50;;;;;;5066081;28;20066;-54
2022/05/22 11:38:53;;;;;;;4.88;1.60;;;27.10;49.50;;;;;;5049680;28;20067;-51
2022/05/22 11:41:35;;;;;;;4.25;1.23;;;26.50;50.10;;;;;;5066715;28;20054;-59
2022/05/22 11:44:23;;;;;;;5.57;1.65;;;27.10;47.60;;;;;;5065771;28;20051;-58
2022/05/22 11:47:16;;;;;;;5.07;1.50;;;27.50;49.00;;;;;;5084074;28;20086;-59
2022/05/22 11:50:01;;;;;;;4.75;1.50;;;26.80;47.10;;;;;;5065951;28;20044;-59
2022/05/22 11:55:39;;;;;;;5.15;1.33;;;25.60;49.00;;;;;;5084542;28;20101;-59
2022/05/22 11:58:14;;;;;;;5.78;1.30;;;25.70;49.40;;;;;;5084189;28;20052;-60
2022/05/22 12:01:05;;;;;;;6.05;1.15;;;25.80;52.20;;;;;;5065968;28;20159;-59
2022/05/22 12:04:08;;;;;;;6.43;1.40;;;25.60;48.90;;;;;;5065666;28;20080;-58
2022/05/22 12:07:12;;;;;;;6.28;1.83;;;25.70;53.60;;;;;;5065543;28;20080;-52
2022/05/22 12:10:11;;;;;;;5.90;1.70;;;26.40;52.30;;;;;;5083949;28;20083;-48
2022/05/22 12:12:47;;;;;;;6.25;1.60;;;26.70;49.80;;;;;;5048884;28;20497;-58
2022/05/22 12:15:18;;;;;;;7.18;1.58;;;26.70;48.00;;;;;;5084001;28;20044;-52
2022/05/22 12:18:29;;;;;;;8.75;1.75;;;27.00;49.70;;;;;;5048838;28;20048;-48
2022/05/22 12:21:16;;;;;;;5.88;1.88;;;27.10;50.00;;;;;;5083956;28;20082;-54
2022/05/22 12:24:01;;;;;;;7.68;1.42;;;27.20;48.30;;;;;;5083961;28;20055;-58
2022/05/22 12:26:30;;;;;;;5.40;1.30;;;26.30;49.40;;;;;;5050205;28;20052;-58
2022/05/22 12:29:10;;;;;;;5.53;1.58;;;25.70;50.60;;;;;;5066274;28;20051;-57
2022/05/22 12:31:42;;;;;;;4.57;1.45;;;25.50;49.40;;;;;;5049687;28;20113;-58
2022/05/22 12:34:18;;;;;;;4.95;1.58;;;25.40;50.20;;;;;;5084052;28;20043;-58
2022/05/22 12:36:51;;;;;;;3.65;1.48;;;25.30;50.60;;;;;;5083882;28;20130;-58
2022/05/22 12:39:18;;;;;;;6.35;1.42;;;25.10;50.70;;;;;;5049297;28;20416;-58
2022/05/22 12:42:10;;;;;;;5.55;1.88;;;24.70;51.30;;;;;;5049514;28;20575;-58
2022/05/22 12:44:36;;;;;;;6.40;1.75;;;24.40;52.50;;;;;;5065398;28;20443;-58
2022/05/22 12:47:13;;;;;;;4.82;1.55;;;24.20;54.30;;;;;;5087781;28;20048;-53
2022/05/22 12:49:40;;;;;;;4.78;1.50;;;24.10;57.20;;;;;;5052891;28;21017;-52
2022/05/22 12:52:26;;;;;;;7.25;1.38;;;23.80;57.80;;;;;;5036623;28;20056;-52
2022/05/22 12:55:05;;;;;;;5.85;1.70;;;24.00;58.80;;;;;;5052391;28;20058;-53
2022/05/22 12:57:31;;;;;;;5.15;1.52;;;23.90;58.70;;;;;;5068884;28;20055;-53
2022/05/22 13:00:12;;;;;;;4.88;1.63;;;23.50;58.20;;;;;;5068683;28;20052;-54
2022/05/22 13:02:46;;;;;;;5.63;1.52;;;23.80;57.30;;;;;;5069091;28;20101;-53
2022/05/22 13:05:29;;;;;;;5.15;1.33;;;23.60;59.30;;;;;;5068815;28;20056;-52
2022/05/22 13:07:57;;;;;;;5.47;1.83;;;23.90;64.00;;;;;;5087261;28;20059;-53
2022/05/22 13:10:56;;;;;;;8.45;1.92;;;24.30;58.40;;;;;;5086924;28;20051;-53
2022/05/22 13:13:30;;;;;;;8.55;2.05;;;24.40;62.10;;;;;;5025696;28;20048;-48
2022/05/22 13:16:03;;;;;;;6.60;1.90;;;25.00;58.80;;;;;;5068637;28;20400;-51
2022/05/22 13:18:30;;;;;;;4.03;1.58;;;25.30;57.50;;;;;;5068706;28;20052;-48
2022/05/22 13:20:59;;;;;;;7.53;1.67;;;25.10;55.60;;;;;;5068425;28;20125;-53
2022/05/22 13:23:39;;;;;;;7.13;1.60;;;24.90;55.80;;;;;;5068630;28;20048;-58
2022/05/22 13:26:26;;;;;;;6.35;1.58;;;24.40;56.50;;;;;;5052096;28;20052;-56
2022/05/22 13:29:05;;;;;;;7.05;1.67;;;24.30;58.00;;;;;;5086697;28;20505;-52
2022/05/22 13:31:45;;;;;;;6.28;1.58;;;24.30;57.40;;;;;;5086541;28;20076;-53
2022/05/22 13:34:34;;;;;;;4.47;1.33;;;24.00;58.10;;;;;;5087049;28;20052;-48
2022/05/22 13:37:06;;;;;;;7.68;1.98;;;23.90;58.90;;;;;;5068629;28;20127;-54
2022/05/22 13:39:54;;;;;;;4.55;1.35;;;23.70;62.00;;;;;;5086412;28;20044;-52
2022/05/22 13:42:38;;;;;;;6.13;1.42;;;23.80;70.90;;;;;;5051823;28;20113;-49
2022/05/22 13:45:35;;;;;;;6.70;1.60;;;24.20;70.20;;;;;;5051576;28;20496;-52
2022/05/22 13:48:42;;;;;;;6.28;1.38;;;24.90;60.80;;;;;;5086419;28;20048;-53
2022/05/22 13:54:38;;;;;;;5.63;1.50;;;26.00;52.50;;;;;;4987271;28;20045;-58
2022/05/22 13:57:15;;;;;;;6.80;1.92;;;26.30;52.90;;;;;;5060253;28;20125;-58